createdAt,value
2023-05-25T00:00:02.905Z,12.7
2023-05-25T00:01:11.425Z,10
2023-05-25T00:02:19.793Z,10
2023-05-25T00:03:28.509Z,10
2023-05-25T00:04:36.810Z,9.8
2023-05-25T00:05:45.200Z,9.8
2023-05-25T00:06:53.415Z,9.8
2023-05-25T00:08:01.964Z,11.5
2023-05-25T00:09:10.308Z,11.5
2023-05-25T00:10:18.648Z,11.5
2023-05-25T00:11:27.187Z,10.7
2023-05-25T00:12:35.523Z,10.7
2023-05-25T00:13:43.853Z,10.7
2023-05-25T00:14:52.404Z,11.3
2023-05-25T00:16:00.799Z,11.3
2023-05-25T00:17:09.114Z,11.3
2023-05-25T00:18:17.641Z,8.5
2023-05-25T00:19:26.021Z,8.5
2023-05-25T00:20:34.469Z,8.5
2023-05-25T00:21:42.879Z,9.4
2023-05-25T00:22:51.258Z,9.4
2023-05-25T00:23:59.580Z,9.4
2023-05-25T00:25:08.138Z,11.1
2023-05-25T00:26:16.465Z,11.1
2023-05-25T00:27:24.949Z,11.1
2023-05-25T00:28:33.582Z,9.4
2023-05-25T00:29:41.936Z,9.4
2023-05-25T00:30:50.323Z,9.4
2023-05-25T00:31:58.876Z,8.9
2023-05-25T00:33:07.211Z,8.9
2023-05-25T00:34:15.531Z,8.9
2023-05-25T00:35:24.076Z,10.7
2023-05-25T00:36:32.402Z,10.7
2023-05-25T00:37:40.761Z,10.7
2023-05-25T00:38:49.343Z,10
2023-05-25T00:39:57.709Z,10
2023-05-25T00:41:06.050Z,10
2023-05-25T00:42:14.591Z,10.3
2023-05-25T00:43:22.980Z,10.3
2023-05-25T00:44:31.314Z,10.3
2023-05-25T00:45:39.855Z,9.4
2023-05-25T00:46:48.279Z,9.4
2023-05-25T00:47:56.703Z,9.4
2023-05-25T00:49:05.168Z,9.9
2023-05-25T00:50:13.552Z,9.9
2023-05-25T00:51:21.893Z,9.9
2023-05-25T00:52:30.444Z,10.6
2023-05-25T00:53:38.802Z,10.6
2023-05-25T00:54:47.143Z,10.6
2023-05-25T00:55:55.719Z,9.4
2023-05-25T00:57:04.128Z,9.4
2023-05-25T00:58:12.481Z,9.4
2023-05-25T00:59:21.007Z,12.9
2023-05-25T01:00:29.336Z,12.9
2023-05-25T01:01:37.689Z,12.9
2023-05-25T01:02:46.253Z,11.1
2023-05-25T01:03:54.643Z,11.1
2023-05-25T01:05:02.899Z,11.1
2023-05-25T01:06:11.469Z,8.3
2023-05-25T01:07:19.812Z,8.3
2023-05-25T01:08:28.196Z,8.3
2023-05-25T01:09:36.771Z,11.1
2023-05-25T01:10:45.115Z,11.1
2023-05-25T01:11:53.456Z,11.1
2023-05-25T01:13:02.031Z,10.3
2023-05-25T01:14:10.343Z,10.3
2023-05-25T01:15:18.698Z,10.3
2023-05-25T01:16:27.322Z,10.3
2023-05-25T01:17:35.593Z,10.3
2023-05-25T01:18:43.962Z,10.3
2023-05-25T01:20:08.736Z,10.8
2023-05-25T01:21:00.890Z,10.8
2023-05-25T01:22:09.219Z,10.8
2023-05-25T01:23:17.772Z,10.4
2023-05-25T01:24:26.112Z,10.4
2023-05-25T01:25:34.439Z,10.4
2023-05-25T01:26:42.995Z,12.4
2023-05-25T01:27:51.349Z,12.4
2023-05-25T01:28:59.684Z,12.4
2023-05-25T01:30:08.216Z,10.3
2023-05-25T01:31:16.568Z,10.3
2023-05-25T01:32:25.084Z,10.3
2023-05-25T01:33:33.629Z,10.5
2023-05-25T01:34:42.022Z,10.5
2023-05-25T01:35:50.425Z,10.5
2023-05-25T01:36:58.903Z,11.1
2023-05-25T01:38:07.217Z,11.1
2023-05-25T01:39:15.607Z,11.1
2023-05-25T01:40:24.114Z,10.4
2023-05-25T01:41:32.441Z,10.4
2023-05-25T01:42:40.776Z,10.4
2023-05-25T01:43:49.371Z,9.2
2023-05-25T01:44:57.715Z,9.2
2023-05-25T01:46:06.095Z,9.2
2023-05-25T01:47:14.658Z,10.7
2023-05-25T01:48:23.009Z,10.7
2023-05-25T01:49:31.345Z,10.7
2023-05-25T01:50:39.928Z,10.7
2023-05-25T01:51:48.327Z,10.7
2023-05-25T01:52:56.612Z,10.7
2023-05-25T01:54:05.180Z,10
2023-05-25T01:55:13.561Z,10
2023-05-25T01:56:21.894Z,10
2023-05-25T01:57:30.428Z,10.1
2023-05-25T01:58:38.793Z,10.1
2023-05-25T01:59:47.186Z,10.1
2023-05-25T02:00:55.774Z,11.9
2023-05-25T02:02:04.126Z,11.9
2023-05-25T02:03:12.455Z,11.9
2023-05-25T02:04:21.024Z,11.1
2023-05-25T02:05:29.325Z,11.1
2023-05-25T02:06:37.661Z,11.1
2023-05-25T02:07:46.233Z,11.6
2023-05-25T02:08:54.540Z,11.6
2023-05-25T02:10:02.872Z,11.6
2023-05-25T02:11:11.458Z,9.9
2023-05-25T02:12:19.794Z,9.9
2023-05-25T02:13:28.182Z,9.9
2023-05-25T02:14:36.716Z,10.9
2023-05-25T02:15:45.270Z,10.9
2023-05-25T02:16:53.419Z,10.9
2023-05-25T02:18:02.034Z,11.6
2023-05-25T02:19:10.328Z,11.6
2023-05-25T02:20:18.681Z,11.6
2023-05-25T02:21:27.219Z,10.1
2023-05-25T02:22:35.591Z,10.1
2023-05-25T02:23:44.092Z,10.1
2023-05-25T02:24:52.499Z,11.1
2023-05-25T02:26:00.835Z,11.1
2023-05-25T02:27:09.203Z,11.1
2023-05-25T02:28:17.781Z,11.1
2023-05-25T02:29:26.158Z,11.1
2023-05-25T02:30:34.528Z,11.1
2023-05-25T02:31:43.120Z,10.1
2023-05-25T02:32:51.440Z,10.1
2023-05-25T02:33:59.756Z,10.1
2023-05-25T02:35:08.347Z,10.8
2023-05-25T02:36:16.691Z,10.8
2023-05-25T02:37:25.760Z,10.8
2023-05-25T02:38:34.325Z,10.5
2023-05-25T02:39:42.818Z,10.5
2023-05-25T02:40:51.103Z,10.5
2023-05-25T02:41:59.621Z,12.3
2023-05-25T02:43:07.987Z,12.3
2023-05-25T02:44:16.328Z,12.3
2023-05-25T02:45:24.862Z,11.4
2023-05-25T02:46:33.239Z,11.4
2023-05-25T02:47:41.576Z,11.4
2023-05-25T02:48:50.102Z,10.7
2023-05-25T02:49:58.458Z,10.7
2023-05-25T02:51:06.814Z,10.7
2023-05-25T02:52:15.382Z,9.3
2023-05-25T02:53:23.736Z,9.3
2023-05-25T02:54:32.071Z,9.3
2023-05-25T02:55:40.747Z,15.1
2023-05-25T02:56:48.990Z,15.1
2023-05-25T02:57:57.349Z,15.1
2023-05-25T02:59:05.907Z,15.8
2023-05-25T03:00:14.246Z,15.8
2023-05-25T03:01:22.686Z,15.8
2023-05-25T03:02:31.195Z,24
2023-05-25T03:03:39.570Z,24
2023-05-25T03:04:47.874Z,24
2023-05-25T03:05:56.434Z,21.299999
2023-05-25T03:07:04.781Z,21.299999
2023-05-25T03:08:13.128Z,21.299999
2023-05-25T03:09:21.690Z,15.4
2023-05-25T03:10:30.033Z,15.4
2023-05-25T03:11:38.403Z,15.4
2023-05-25T03:12:46.918Z,12.1
2023-05-25T03:13:55.262Z,12.1
2023-05-25T03:15:03.634Z,12.1
2023-05-25T03:16:12.234Z,9.6
2023-05-25T03:17:20.721Z,9.6
2023-05-25T03:18:29.020Z,9.6
2023-05-25T03:19:37.579Z,11.5
2023-05-25T03:20:45.917Z,11.5
2023-05-25T03:21:54.246Z,11.5
2023-05-25T03:23:02.793Z,11.5
2023-05-25T03:24:11.160Z,11.5
2023-05-25T03:25:19.501Z,11.5
2023-05-25T03:26:28.067Z,12.7
2023-05-25T03:27:36.500Z,12.7
2023-05-25T03:28:44.753Z,12.7
2023-05-25T03:29:53.300Z,14.2
2023-05-25T03:31:01.682Z,14.2
2023-05-25T03:32:10.040Z,14.2
2023-05-25T03:33:18.566Z,14.2
2023-05-25T03:34:26.969Z,14.2
2023-05-25T03:35:35.284Z,14.2
2023-05-25T03:36:43.864Z,15.5
2023-05-25T03:37:52.236Z,15.5
2023-05-25T03:39:00.592Z,15.5
2023-05-25T03:40:09.152Z,17.1
2023-05-25T03:41:17.621Z,17.1
2023-05-25T03:42:25.832Z,17.1
2023-05-25T03:43:34.442Z,14.9
2023-05-25T03:44:42.756Z,14.9
2023-05-25T03:45:51.129Z,14.9
2023-05-25T03:46:59.687Z,12.3
2023-05-25T03:48:08.015Z,12.3
2023-05-25T03:49:16.342Z,12.3
2023-05-25T03:50:24.919Z,19.1
2023-05-25T03:51:33.293Z,19.1
2023-05-25T03:52:41.626Z,19.1
2023-05-25T03:53:50.245Z,18.9
2023-05-25T03:54:58.600Z,18.9
2023-05-25T03:56:06.959Z,18.9
2023-05-25T03:57:15.527Z,17.799999
2023-05-25T03:58:23.863Z,17.799999
2023-05-25T03:59:32.219Z,17.799999
2023-05-25T04:00:40.769Z,19.9
2023-05-25T04:01:49.102Z,19.9
2023-05-25T04:02:57.558Z,19.9
2023-05-25T04:04:06.087Z,17.9
2023-05-25T04:05:14.378Z,17.9
2023-05-25T04:06:22.716Z,17.9
2023-05-25T04:07:31.303Z,22
2023-05-25T04:08:39.629Z,22
2023-05-25T04:09:48.015Z,22
2023-05-25T04:10:56.590Z,19.1
2023-05-25T04:12:04.934Z,19.1
2023-05-25T04:13:13.255Z,19.1
2023-05-25T04:14:21.830Z,19.4
2023-05-25T04:15:30.207Z,19.4
2023-05-25T04:16:38.615Z,19.4
2023-05-25T04:17:47.124Z,20.200001
2023-05-25T04:18:55.476Z,20.200001
2023-05-25T04:20:03.875Z,20.200001
2023-05-25T04:21:12.361Z,18.1
2023-05-25T04:22:20.690Z,18.1
2023-05-25T04:23:29.065Z,18.1
2023-05-25T04:24:37.642Z,21.1
2023-05-25T04:25:46.094Z,21.1
2023-05-25T04:26:54.348Z,21.1
2023-05-25T04:28:02.903Z,18.700001
2023-05-25T04:29:11.267Z,18.700001
2023-05-25T04:30:19.627Z,18.700001
2023-05-25T04:31:28.242Z,21.9
2023-05-25T04:32:36.577Z,21.9
2023-05-25T04:33:44.881Z,21.9
2023-05-25T04:34:53.429Z,20.799999
2023-05-25T04:36:01.757Z,20.799999
2023-05-25T04:37:10.104Z,20.799999
2023-05-25T04:38:18.668Z,19.299999
2023-05-25T04:39:27.021Z,19.299999
2023-05-25T04:40:35.395Z,19.299999
2023-05-25T04:41:43.945Z,20
2023-05-25T04:42:52.297Z,20
2023-05-25T04:44:06.773Z,20
2023-05-25T04:45:09.220Z,19.200001
2023-05-25T04:46:17.596Z,19.200001
2023-05-25T04:47:26.097Z,19.200001
2023-05-25T04:48:34.499Z,22.6
2023-05-25T04:49:42.853Z,22.6
2023-05-25T04:50:51.184Z,22.6
2023-05-25T04:51:59.716Z,19.200001
2023-05-25T04:53:08.094Z,19.200001
2023-05-25T04:54:16.425Z,19.200001
2023-05-25T04:55:24.966Z,19.5
2023-05-25T04:56:33.304Z,19.5
2023-05-25T04:57:42.217Z,19.5
2023-05-25T04:58:50.754Z,18.4
2023-05-25T04:59:59.102Z,18.4
2023-05-25T05:01:07.507Z,18.4
2023-05-25T05:02:15.997Z,19.299999
2023-05-25T05:03:24.419Z,19.299999
2023-05-25T05:04:32.676Z,19.299999
2023-05-25T05:05:41.216Z,21
2023-05-25T05:06:49.580Z,21
2023-05-25T05:07:57.926Z,21
2023-05-25T05:09:06.482Z,20.799999
2023-05-25T05:10:14.864Z,20.799999
2023-05-25T05:11:23.209Z,20.799999
2023-05-25T05:12:31.774Z,20.9
2023-05-25T05:13:40.121Z,20.9
2023-05-25T05:14:48.450Z,20.9
2023-05-25T05:15:57.014Z,22
2023-05-25T05:17:05.415Z,22
2023-05-25T05:18:13.728Z,22
2023-05-25T05:19:22.275Z,26.1
2023-05-25T05:20:30.620Z,26.1
2023-05-25T05:21:38.940Z,26.1
2023-05-25T05:22:47.473Z,23.4
2023-05-25T05:23:55.834Z,23.4
2023-05-25T05:25:04.186Z,23.4
2023-05-25T05:26:12.751Z,22.6
2023-05-25T05:27:21.104Z,22.6
2023-05-25T05:28:30.075Z,22.6
2023-05-25T05:29:38.610Z,19.299999
2023-05-25T05:30:46.969Z,19.299999
2023-05-25T05:31:55.371Z,19.299999
2023-05-25T05:33:03.996Z,16.5
2023-05-25T05:34:13.022Z,16.5
2023-05-25T05:35:21.395Z,16.5
2023-05-25T05:36:29.921Z,16.700001
2023-05-25T05:37:38.300Z,16.700001
2023-05-25T05:38:46.647Z,16.700001
2023-05-25T05:39:55.206Z,21.4
2023-05-25T05:41:03.548Z,21.4
2023-05-25T05:42:11.910Z,21.4
2023-05-25T05:43:20.455Z,16.9
2023-05-25T05:44:29.566Z,16.9
2023-05-25T05:45:37.153Z,16.9
2023-05-25T05:46:45.740Z,19.299999
2023-05-25T05:47:54.053Z,19.299999
2023-05-25T05:49:02.389Z,19.299999
2023-05-25T05:50:10.928Z,20.5
2023-05-25T05:51:19.299Z,20.5
2023-05-25T05:52:27.661Z,20.5
2023-05-25T05:53:36.250Z,18.5
2023-05-25T05:54:44.590Z,18.5
2023-05-25T05:55:54.393Z,18.5
2023-05-25T05:57:01.513Z,21.6
2023-05-25T05:58:09.823Z,21.6
2023-05-25T05:59:18.162Z,21.6
2023-05-25T06:00:27.172Z,18.4
2023-05-25T06:01:36.728Z,18.4
2023-05-25T06:02:45.074Z,18.4
2023-05-25T06:03:53.656Z,18.1
2023-05-25T06:05:01.968Z,18.1
2023-05-25T06:06:10.379Z,18.1
2023-05-25T06:07:18.987Z,20.299999
2023-05-25T06:08:27.227Z,20.299999
2023-05-25T06:09:35.582Z,20.299999
2023-05-25T06:10:44.146Z,20.700001
2023-05-25T06:11:52.486Z,20.700001
2023-05-25T06:13:00.844Z,20.700001
2023-05-25T06:14:09.410Z,16.700001
2023-05-25T06:15:17.733Z,16.700001
2023-05-25T06:16:26.135Z,16.700001
2023-05-25T06:17:34.696Z,18.5
2023-05-25T06:18:42.992Z,18.5
2023-05-25T06:19:51.377Z,18.5
2023-05-25T06:20:59.952Z,16.700001
2023-05-25T06:22:08.282Z,16.700001
2023-05-25T06:23:16.702Z,16.700001
2023-05-25T06:24:25.234Z,18.4
2023-05-25T06:25:33.543Z,18.4
2023-05-25T06:26:41.920Z,18.4
2023-05-25T06:27:50.503Z,20.4
2023-05-25T06:28:58.816Z,20.4
2023-05-25T06:30:07.193Z,20.4
2023-05-25T06:31:15.785Z,18.9
2023-05-25T06:32:24.180Z,18.9
2023-05-25T06:33:32.489Z,18.9
2023-05-25T06:34:41.029Z,17
2023-05-25T06:35:51.007Z,17
2023-05-25T06:36:57.683Z,17
2023-05-25T06:38:06.232Z,17.5
2023-05-25T06:39:14.591Z,17.5
2023-05-25T06:40:22.905Z,17.5
2023-05-25T06:41:31.443Z,17.1
2023-05-25T06:42:39.785Z,17.1
2023-05-25T06:43:48.100Z,17.1
2023-05-25T06:44:56.655Z,14.3
2023-05-25T06:46:05.107Z,14.3
2023-05-25T06:47:13.350Z,14.3
2023-05-25T06:48:21.897Z,19
2023-05-25T06:49:30.236Z,19
2023-05-25T06:50:38.562Z,19
2023-05-25T06:51:47.105Z,15.5
2023-05-25T06:52:55.444Z,15.5
2023-05-25T06:54:03.761Z,15.5
2023-05-25T06:55:12.345Z,14.6
2023-05-25T06:56:20.651Z,14.6
2023-05-25T06:57:28.971Z,14.6
2023-05-25T06:58:37.515Z,12.3
2023-05-25T06:59:45.859Z,12.3
2023-05-25T07:00:54.202Z,12.3
2023-05-25T07:02:02.724Z,12.9
2023-05-25T07:03:11.098Z,12.9
2023-05-25T07:04:19.415Z,12.9
2023-05-25T07:05:28.002Z,14.2
2023-05-25T07:06:36.284Z,14.2
2023-05-25T07:07:44.636Z,14.2
2023-05-25T07:08:53.175Z,12.8
2023-05-25T07:10:01.512Z,12.8
2023-05-25T07:11:09.911Z,12.8
2023-05-25T07:12:18.406Z,9.8
2023-05-25T07:13:26.756Z,9.8
2023-05-25T07:14:35.097Z,9.8
2023-05-25T07:15:43.836Z,13.1
2023-05-25T07:16:51.979Z,13.1
2023-05-25T07:18:00.342Z,13.1
2023-05-25T07:19:08.874Z,11.3
2023-05-25T07:20:17.244Z,11.3
2023-05-25T07:21:25.560Z,11.3
2023-05-25T07:22:34.110Z,11.1
2023-05-25T07:23:42.460Z,11.1
2023-05-25T07:24:50.777Z,11.1
2023-05-25T07:25:59.329Z,8.7
2023-05-25T07:27:07.677Z,8.7
2023-05-25T07:28:16.000Z,8.7
2023-05-25T07:29:24.550Z,10.9
2023-05-25T07:30:32.883Z,10.9
2023-05-25T07:31:41.240Z,10.9
2023-05-25T07:32:49.774Z,10.3
2023-05-25T07:33:58.078Z,10.3
2023-05-25T07:35:06.421Z,10.3
2023-05-25T07:36:15.032Z,8.7
2023-05-25T07:37:23.314Z,8.7
2023-05-25T07:38:32.204Z,8.7
2023-05-25T07:39:40.747Z,11.9
2023-05-25T07:40:49.088Z,11.9
2023-05-25T07:41:57.414Z,11.9
2023-05-25T07:43:08.210Z,8.5
2023-05-25T07:44:14.323Z,8.5
2023-05-25T07:45:22.643Z,8.5
2023-05-25T07:46:31.216Z,13.2
2023-05-25T07:47:39.558Z,13.2
2023-05-25T07:48:47.866Z,13.2
2023-05-25T07:49:56.406Z,10.2
2023-05-25T07:51:04.754Z,10.2
2023-05-25T07:52:13.098Z,10.2
2023-05-25T07:53:21.663Z,13.5
2023-05-25T07:54:29.997Z,13.5
2023-05-25T07:55:38.327Z,13.5
2023-05-25T07:56:46.891Z,11.7
2023-05-25T07:57:55.227Z,11.7
2023-05-25T07:59:03.606Z,11.7
2023-05-25T08:00:12.094Z,13.5
2023-05-25T08:01:20.445Z,13.5
2023-05-25T08:02:28.844Z,13.5
2023-05-25T08:03:48.756Z,17.799999
2023-05-25T08:04:45.729Z,17.799999
2023-05-25T08:05:53.978Z,17.799999
2023-05-25T08:07:02.520Z,13
2023-05-25T08:08:10.862Z,13
2023-05-25T08:09:19.193Z,13
2023-05-25T08:10:27.736Z,13.4
2023-05-25T08:11:36.093Z,13.4
2023-05-25T08:12:48.373Z,13.4
2023-05-25T08:13:52.971Z,10.3
2023-05-25T08:15:01.345Z,10.3
2023-05-25T08:16:09.640Z,10.3
2023-05-25T08:17:18.282Z,13.5
2023-05-25T08:18:26.545Z,13.5
2023-05-25T08:19:34.894Z,13.5
2023-05-25T08:20:43.556Z,14.4
2023-05-25T08:21:51.818Z,14.4
2023-05-25T08:23:00.163Z,14.4
2023-05-25T08:24:08.718Z,13.1
2023-05-25T08:25:17.076Z,13.1
2023-05-25T08:26:38.262Z,13.1
2023-05-25T08:27:35.644Z,13.8
2023-05-25T08:28:42.442Z,13.8
2023-05-25T08:29:50.827Z,13.8
2023-05-25T08:30:59.444Z,11.8
2023-05-25T08:32:07.746Z,11.8
2023-05-25T08:33:16.073Z,11.8
2023-05-25T08:34:24.622Z,12.5
2023-05-25T08:35:32.965Z,12.5
2023-05-25T08:36:41.303Z,12.5
2023-05-25T08:37:49.874Z,14.4
2023-05-25T08:38:58.252Z,14.4
2023-05-25T08:40:06.577Z,14.4
2023-05-25T08:41:15.156Z,13.2
2023-05-25T08:42:23.533Z,13.2
2023-05-25T08:43:31.888Z,13.2
2023-05-25T08:44:40.460Z,11.8
2023-05-25T08:45:48.850Z,11.8
2023-05-25T08:46:57.194Z,11.8
2023-05-25T08:48:05.784Z,11
2023-05-25T08:49:14.179Z,11
2023-05-25T08:50:22.433Z,11
2023-05-25T08:51:31.017Z,12.5
2023-05-25T08:52:39.409Z,12.5
2023-05-25T08:53:47.750Z,12.5
2023-05-25T08:54:56.355Z,12.6
2023-05-25T08:56:04.706Z,12.6
2023-05-25T08:57:13.057Z,12.6
2023-05-25T08:58:21.627Z,12.7
2023-05-25T08:59:29.989Z,12.7
2023-05-25T09:00:38.328Z,12.7
2023-05-25T09:01:46.929Z,11.9
2023-05-25T09:02:55.418Z,11.9
2023-05-25T09:04:03.662Z,11.9
2023-05-25T09:05:12.210Z,10.7
2023-05-25T09:06:20.602Z,10.7
2023-05-25T09:07:28.940Z,10.7
2023-05-25T09:08:37.496Z,13.6
2023-05-25T09:09:45.862Z,13.6
2023-05-25T09:10:54.217Z,13.6
2023-05-25T09:12:02.803Z,10.8
2023-05-25T09:13:20.973Z,10.8
2023-05-25T09:14:19.496Z,10.8
2023-05-25T09:15:28.081Z,10.3
2023-05-25T09:16:36.496Z,10.3
2023-05-25T09:17:44.854Z,10.3
2023-05-25T09:18:53.468Z,12.5
2023-05-25T09:20:01.832Z,12.5
2023-05-25T09:21:10.219Z,12.5
2023-05-25T09:22:18.785Z,12.4
2023-05-25T09:23:27.165Z,12.4
2023-05-25T09:24:35.544Z,12.4
2023-05-25T09:25:44.109Z,10.5
2023-05-25T09:26:52.473Z,10.5
2023-05-25T09:28:07.450Z,10.5
2023-05-25T09:29:09.400Z,10.8
2023-05-25T09:30:17.810Z,10.8
2023-05-25T09:31:26.217Z,10.8
2023-05-25T09:32:34.832Z,9.9
2023-05-25T09:33:43.138Z,9.9
2023-05-25T09:34:51.569Z,9.9
2023-05-25T09:36:00.143Z,14
2023-05-25T09:37:08.656Z,14
2023-05-25T09:38:17.331Z,14
2023-05-25T09:39:25.680Z,12.1
2023-05-25T09:40:33.923Z,12.1
2023-05-25T09:41:42.347Z,12.1
2023-05-25T09:42:51.042Z,8.5
2023-05-25T09:44:10.210Z,8.5
2023-05-25T09:45:07.972Z,8.5
2023-05-25T09:46:16.753Z,10.8
2023-05-25T09:47:25.186Z,10.8
2023-05-25T09:48:33.501Z,10.8
2023-05-25T09:49:42.189Z,11
2023-05-25T09:50:50.823Z,11
2023-05-25T09:51:59.105Z,11
2023-05-25T09:53:07.760Z,11.5
2023-05-25T09:54:16.238Z,11.5
2023-05-25T09:55:24.759Z,11.5
2023-05-25T09:56:33.393Z,12.1
2023-05-25T09:57:41.883Z,12.1
2023-05-25T09:58:50.584Z,12.1
2023-05-25T09:59:59.180Z,14.9
2023-05-25T10:01:07.875Z,14.9
2023-05-25T10:02:16.330Z,14.9
2023-05-25T10:03:24.937Z,15.9
2023-05-25T10:04:33.364Z,15.9
2023-05-25T10:05:41.766Z,15.9
2023-05-25T10:06:50.470Z,14.4
2023-05-25T10:07:58.901Z,14.4
2023-05-25T10:09:07.322Z,14.4
2023-05-25T10:10:15.978Z,11.9
2023-05-25T10:11:24.481Z,11.9
2023-05-25T10:12:32.887Z,11.9
2023-05-25T10:13:41.580Z,12
2023-05-25T10:14:50.018Z,12
2023-05-25T10:15:58.474Z,12
2023-05-25T10:17:07.065Z,13.2
2023-05-25T10:18:15.469Z,13.2
2023-05-25T10:19:23.840Z,13.2
2023-05-25T10:20:33.494Z,15.5
2023-05-25T10:21:40.896Z,15.5
2023-05-25T10:22:49.466Z,15.5
2023-05-25T10:23:57.867Z,13.9
2023-05-25T10:25:06.265Z,13.9
2023-05-25T10:26:14.697Z,13.9
2023-05-25T10:27:27.230Z,12.7
2023-05-25T10:28:31.620Z,12.7
2023-05-25T10:29:39.998Z,12.7
2023-05-25T10:30:48.574Z,15.1
2023-05-25T10:31:57.036Z,15.1
2023-05-25T10:33:05.466Z,15.1
2023-05-25T10:34:14.003Z,12.4
2023-05-25T10:35:22.421Z,12.4
2023-05-25T10:36:30.859Z,12.4
2023-05-25T10:37:39.523Z,12
2023-05-25T10:38:48.371Z,12
2023-05-25T10:39:56.894Z,12
2023-05-25T10:41:05.569Z,12.6
2023-05-25T10:42:14.041Z,12.6
2023-05-25T10:43:22.579Z,12.6
2023-05-25T10:44:31.308Z,14.3
2023-05-25T10:45:39.865Z,14.3
2023-05-25T10:46:48.337Z,14.3
2023-05-25T10:47:57.118Z,12.9
2023-05-25T10:49:05.594Z,12.9
2023-05-25T10:50:14.204Z,12.9
2023-05-25T10:51:23.235Z,11.8
2023-05-25T10:52:31.461Z,11.8
2023-05-25T10:53:40.052Z,11.8
2023-05-25T10:54:48.859Z,14.3
2023-05-25T10:55:57.404Z,14.3
2023-05-25T10:57:05.968Z,14.3
2023-05-25T10:58:14.766Z,15.7
2023-05-25T10:59:23.316Z,15.7
2023-05-25T11:00:31.936Z,15.7
2023-05-25T11:01:40.580Z,14.6
2023-05-25T11:02:49.062Z,14.6
2023-05-25T11:03:57.602Z,14.6
2023-05-25T11:05:06.261Z,14.5
2023-05-25T11:06:17.222Z,14.5
2023-05-25T11:07:36.887Z,14.5
2023-05-25T11:08:48.110Z,14.8
2023-05-25T11:09:56.482Z,14.8
2023-05-25T11:11:04.766Z,14.8
2023-05-25T11:12:13.293Z,14.6
2023-05-25T11:13:21.637Z,14.6
2023-05-25T11:14:30.117Z,14.6
2023-05-25T11:15:38.549Z,15.4
2023-05-25T11:16:46.934Z,15.4
2023-05-25T11:17:55.376Z,15.4
2023-05-25T11:19:03.828Z,14.6
2023-05-25T11:20:12.213Z,14.6
2023-05-25T11:21:20.528Z,14.6
2023-05-25T11:22:29.075Z,12.7
2023-05-25T11:23:37.414Z,12.7
2023-05-25T11:24:45.748Z,12.7
2023-05-25T11:25:54.321Z,14.9
2023-05-25T11:27:02.652Z,14.9
2023-05-25T11:28:11.019Z,14.9
2023-05-25T11:29:19.584Z,14.1
2023-05-25T11:30:27.947Z,14.1
2023-05-25T11:31:41.327Z,14.1
2023-05-25T11:32:44.851Z,15
2023-05-25T11:33:53.196Z,15
2023-05-25T11:35:01.522Z,15
2023-05-25T11:36:10.108Z,13.7
2023-05-25T11:37:18.435Z,13.7
2023-05-25T11:38:26.808Z,13.7
2023-05-25T11:39:35.364Z,13.1
2023-05-25T11:40:43.735Z,13.1
2023-05-25T11:41:52.213Z,13.1
2023-05-25T11:43:00.657Z,13.9
2023-05-25T11:44:09.014Z,13.9
2023-05-25T11:45:17.381Z,13.9
2023-05-25T11:46:25.950Z,16
2023-05-25T11:47:35.757Z,16
2023-05-25T11:48:42.640Z,16
2023-05-25T11:49:51.236Z,11.2
2023-05-25T11:50:59.609Z,11.2
2023-05-25T11:52:07.947Z,11.2
2023-05-25T11:53:16.536Z,16.1
2023-05-25T11:54:24.880Z,16.1
2023-05-25T11:55:33.228Z,16.1
2023-05-25T11:56:41.825Z,15.2
2023-05-25T11:57:50.155Z,15.2
2023-05-25T11:58:58.459Z,15.2
2023-05-25T12:00:07.043Z,14.3
2023-05-25T12:01:15.401Z,14.3
2023-05-25T12:02:23.827Z,14.3
2023-05-25T12:03:32.445Z,14.4
2023-05-25T12:04:40.861Z,14.4
2023-05-25T12:05:49.031Z,14.4
2023-05-25T12:06:57.615Z,15.3
2023-05-25T12:08:05.944Z,15.3
2023-05-25T12:09:14.303Z,15.3
2023-05-25T12:10:22.889Z,13.8
2023-05-25T12:11:31.234Z,13.8
2023-05-25T12:12:39.580Z,13.8
2023-05-25T12:13:48.167Z,14.8
2023-05-25T12:14:57.178Z,14.8
2023-05-25T12:16:05.075Z,14.8
2023-05-25T12:17:13.670Z,14.5
2023-05-25T12:18:21.983Z,14.5
2023-05-25T12:19:30.355Z,14.5
2023-05-25T12:20:38.975Z,14.2
2023-05-25T12:21:47.293Z,14.2
2023-05-25T12:22:55.632Z,14.2
2023-05-25T12:24:04.178Z,13.7
2023-05-25T12:25:12.541Z,13.7
2023-05-25T12:26:20.894Z,13.7
2023-05-25T12:27:29.432Z,14
2023-05-25T12:28:37.806Z,14
2023-05-25T12:29:46.175Z,14
2023-05-25T12:30:54.753Z,14.4
2023-05-25T12:32:03.043Z,14.4
2023-05-25T12:33:11.420Z,14.4
2023-05-25T12:34:19.958Z,14.3
2023-05-25T12:35:28.302Z,14.3
2023-05-25T12:36:36.641Z,14.3
2023-05-25T12:37:45.203Z,12.7
2023-05-25T12:38:53.581Z,12.7
2023-05-25T12:40:01.958Z,12.7
2023-05-25T12:41:10.503Z,12.6
2023-05-25T12:42:18.838Z,12.6
2023-05-25T12:43:27.185Z,12.6
2023-05-25T12:44:35.749Z,11.4
2023-05-25T12:45:44.153Z,11.4
2023-05-25T12:46:52.553Z,11.4
2023-05-25T12:48:02.353Z,12
2023-05-25T12:49:09.441Z,12
2023-05-25T12:50:17.988Z,12
2023-05-25T12:51:26.352Z,13.2
2023-05-25T12:52:34.737Z,13.2
2023-05-25T12:53:43.075Z,13.2
2023-05-25T12:54:51.609Z,9.8
2023-05-25T12:55:59.956Z,9.8
2023-05-25T12:57:08.334Z,9.8
2023-05-25T12:58:16.901Z,12.4
2023-05-25T12:59:25.256Z,12.4
2023-05-25T13:00:33.617Z,12.4
2023-05-25T13:01:42.253Z,10.4
2023-05-25T13:02:50.762Z,10.4
2023-05-25T13:03:58.853Z,10.4
2023-05-25T13:05:07.444Z,10.8
2023-05-25T13:06:15.768Z,10.8
2023-05-25T13:07:24.157Z,10.8
2023-05-25T13:08:32.704Z,11.9
2023-05-25T13:09:41.103Z,11.9
2023-05-25T13:10:49.432Z,11.9
2023-05-25T13:11:57.981Z,10.9
2023-05-25T13:13:06.313Z,10.9
2023-05-25T13:14:14.646Z,10.9
2023-05-25T13:15:23.216Z,12.5
2023-05-25T13:16:31.640Z,12.5
2023-05-25T13:17:39.957Z,12.5
2023-05-25T13:18:48.446Z,10.9
2023-05-25T13:19:56.794Z,10.9
2023-05-25T13:21:05.157Z,10.9
2023-05-25T13:22:13.775Z,12.4
2023-05-25T13:23:22.150Z,12.4
2023-05-25T13:24:30.532Z,12.4
2023-05-25T13:25:39.076Z,11.9
2023-05-25T13:26:49.967Z,11.9
2023-05-25T13:27:55.786Z,11.9
2023-05-25T13:29:04.371Z,11.1
2023-05-25T13:30:12.732Z,11.1
2023-05-25T13:31:21.080Z,11.1
2023-05-25T13:32:29.662Z,10.2
2023-05-25T13:33:38.012Z,10.2
2023-05-25T13:34:46.317Z,10.2
2023-05-25T13:35:54.912Z,10.9
2023-05-25T13:37:03.275Z,10.9
2023-05-25T13:38:11.595Z,10.9
2023-05-25T13:39:20.170Z,12.1
2023-05-25T13:40:28.521Z,12.1
2023-05-25T13:41:36.854Z,12.1
2023-05-25T13:42:45.427Z,9.8
2023-05-25T13:43:53.802Z,9.8
2023-05-25T13:45:02.136Z,9.8
2023-05-25T13:46:18.650Z,10.4
2023-05-25T13:47:20.130Z,10.4
2023-05-25T13:48:28.543Z,10.4
2023-05-25T13:49:37.078Z,10.3
2023-05-25T13:50:45.588Z,10.3
2023-05-25T13:51:53.720Z,10.3
2023-05-25T13:53:02.277Z,9.6
2023-05-25T13:54:10.628Z,9.6
2023-05-25T13:55:18.987Z,9.6
2023-05-25T13:56:27.534Z,10.9
2023-05-25T13:57:35.908Z,10.9
2023-05-25T13:58:44.249Z,10.9
2023-05-25T13:59:52.805Z,14.8
2023-05-25T14:01:01.156Z,14.8
2023-05-25T14:02:09.509Z,14.8
2023-05-25T14:03:18.056Z,10.2
2023-05-25T14:04:26.374Z,10.2
2023-05-25T14:05:34.719Z,10.2
2023-05-25T14:06:43.274Z,10.6
2023-05-25T14:07:51.594Z,10.6
2023-05-25T14:09:00.324Z,10.6
2023-05-25T14:10:09.822Z,9.2
2023-05-25T14:11:18.381Z,9.2
2023-05-25T14:12:25.216Z,9.2
2023-05-25T14:13:33.764Z,9.2
2023-05-25T14:14:42.097Z,9.2
2023-05-25T14:15:50.474Z,9.2
2023-05-25T14:16:59.007Z,10.5
2023-05-25T14:18:07.370Z,10.5
2023-05-25T14:19:15.679Z,10.5
2023-05-25T14:20:24.281Z,10.6
2023-05-25T14:21:32.614Z,10.6
2023-05-25T14:22:40.929Z,10.6
2023-05-25T14:23:49.468Z,10.6
2023-05-25T14:24:57.812Z,10.6
2023-05-25T14:26:06.185Z,10.6
2023-05-25T14:27:14.741Z,10.4
2023-05-25T14:28:23.121Z,10.4
2023-05-25T14:29:31.470Z,10.4
2023-05-25T14:30:40.042Z,10.6
2023-05-25T14:31:48.384Z,10.6
2023-05-25T14:32:56.723Z,10.6
2023-05-25T14:34:05.277Z,8.7
2023-05-25T14:35:13.630Z,8.7
2023-05-25T14:36:21.998Z,8.7
2023-05-25T14:37:30.651Z,9.9
2023-05-25T14:38:38.889Z,9.9
2023-05-25T14:39:47.233Z,9.9
2023-05-25T14:40:55.803Z,10.5
2023-05-25T14:42:04.138Z,10.5
2023-05-25T14:43:12.476Z,10.5
2023-05-25T14:44:21.023Z,10.3
2023-05-25T14:45:29.388Z,10.3
2023-05-25T14:46:37.851Z,10.3
2023-05-25T14:47:46.308Z,11
2023-05-25T14:48:54.942Z,11
2023-05-25T14:50:03.297Z,11
2023-05-25T14:51:11.860Z,8.3
2023-05-25T14:52:20.246Z,8.3
2023-05-25T14:53:28.599Z,8.3
2023-05-25T14:54:37.153Z,9.1
2023-05-25T14:55:45.730Z,9.1
2023-05-25T14:56:53.853Z,9.1
2023-05-25T14:58:02.378Z,9.2
2023-05-25T14:59:10.756Z,9.2
2023-05-25T15:00:19.094Z,9.2
2023-05-25T15:01:27.652Z,8.3
2023-05-25T15:02:36.013Z,8.3
2023-05-25T15:03:44.377Z,8.3
2023-05-25T15:04:52.874Z,9.3
2023-05-25T15:06:01.213Z,9.3
2023-05-25T15:07:11.086Z,9.3
2023-05-25T15:08:18.155Z,8.6